WetterOnline ( http://www.wetteronline.de )

Wetter aktuell Homburg

Aktuelles Wetter: Saarbrücken/Ensheim (320m)

6-stündlich | Neueste Meldungen
Ortszeit Temperatur Wetter
Mo, 20.08. 2:00 15.9° C fast wolkenlos
So, 19.08. 20:00 24.5° C fast wolkenlos
So, 19.08. 14:00 25.4° C leicht bewölkt
So, 19.08. 8:00 15.5° C leicht bewölkt
So, 19.08. 2:00 14.6° C leicht bewölkt
Sa, 18.08. 20:00 23.5° C leicht bewölkt
Sa, 18.08. 14:00 23.1° C wolkenlos
Sa, 18.08. 8:00 14.9° C fast wolkenlos
Ortszeit Temperatur Wetter
Mo, 20.08. 2:30 16.0° C fast wolkenlos
Mo, 20.08. 2:20 16.0° C -
Mo, 20.08. 2:10 15.9° C -
Mo, 20.08. 2:00 15.9° C fast wolkenlos
Mo, 20.08. 1:50 16° C -
Mo, 20.08. 1:40 16.0° C -
Mo, 20.08. 1:30 16.1° C fast wolkenlos
Mo, 20.08. 1:00 16.3° C fast wolkenlos
Mo, 20.08. 0:30 16.9° C fast wolkenlos
Mo, 20.08. 0:00 17.4° C fast wolkenlos
So, 19.08. 23:30 18.6° C -
Ortszeit Relative Feuchte Sichtweite
Mo, 20.08. 2:00 82% 50 km
So, 19.08. 20:00 46% 50 km
So, 19.08. 14:00 39% 50 km
So, 19.08. 8:00 75% 35 km
So, 19.08. 2:00 71% 50 km
Sa, 18.08. 20:00 38% 40 km
Sa, 18.08. 14:00 45% 40 km
Sa, 18.08. 8:00 81% 30 km
Ortszeit Relative Feuchte Sichtweite
Mo, 20.08. 2:30 86% 50 km
Mo, 20.08. 2:20 86% -
Mo, 20.08. 2:10 82% -
Mo, 20.08. 2:00 82% 50 km
Mo, 20.08. 1:50 82% >10 km
Mo, 20.08. 1:40 81% -
Mo, 20.08. 1:30 79% 50 km
Mo, 20.08. 1:00 79% 50 km
Mo, 20.08. 0:30 75% 50 km
Mo, 20.08. 0:00 72% 50 km
So, 19.08. 23:30 68% -
Ortszeit Niederschlagsmenge Niederschlagsart
Mo, 20.08. 2:00 0.0 l/m2 in 6 Std. -
So, 19.08. 20:00 0.0 l/m2 in 12 Std. -
So, 19.08. 14:00 0.0 l/m2 in 6 Std. -
So, 19.08. 8:00 0.0 l/m2 in 12 Std. -
So, 19.08. 2:00 0.0 l/m2 in 6 Std. -
Sa, 18.08. 20:00 0.0 l/m2 in 12 Std. -
Sa, 18.08. 14:00 0.0 l/m2 in 6 Std. -
Sa, 18.08. 8:00 0.3 l/m2 in 12 Std. -
Ortszeit Niederschlagsmenge Niederschlagsart
Mo, 20.08. 2:30 0.0 l/m2 in 1 Std. -
Mo, 20.08. 2:20 keine Meldung -
Mo, 20.08. 2:10 keine Meldung -
Mo, 20.08. 2:00 0.0 l/m2 in 1 Std. -
Mo, 20.08. 1:50 keine Meldung -
Mo, 20.08. 1:40 keine Meldung -
Mo, 20.08. 1:30 0.0 l/m2 in 1 Std. -
Mo, 20.08. 1:00 0.0 l/m2 in 1 Std. -
Mo, 20.08. 0:30 0.0 l/m2 in 1 Std. -
Mo, 20.08. 0:00 0.0 l/m2 in 1 Std. -
So, 19.08. 23:30 0.0 l/m2 in 1 Std. -
Ortszeit Stärke Spitze Richtung
km/h Bft. km/h Grad Sektor
Mo, 20.08. 2:00 7 2 22 270° W
So, 19.08. 20:00 14 3 29 280° W
So, 19.08. 14:00 14 3 25 290° W
So, 19.08. 8:00 0 0 7 - -
So, 19.08. 2:00 7 2 11 310° NW
Sa, 18.08. 20:00 9 2 26 260° W
Sa, 18.08. 14:00 7 2 18 280° W
Sa, 18.08. 8:00 6 1 11 260° W
Ortszeit Stärke Spitze Richtung
km/h Bft. km/h Grad Sektor
Mo, 20.08. 2:30 6 1 7 290° W
Mo, 20.08. 2:20 6 1 - 290° W
Mo, 20.08. 2:10 6 1 - 280° W
Mo, 20.08. 2:00 7 2 7 270° W
Mo, 20.08. 1:50 7 2 - 270° W
Mo, 20.08. 1:40 7 2 - 280° W
Mo, 20.08. 1:30 4 1 7 270° W
Mo, 20.08. 1:00 4 1 7 240° SW
Mo, 20.08. 0:30 7 2 7 290° W
Mo, 20.08. 0:00 7 2 11 300° NW
So, 19.08. 23:30 7 2 11 300° NW
Ortszeit Untergrenze Bedeckung Gattung
total tief tief mittel hoch
Mo, 20.08. 2:00 9000 m 1/8 0/8 - - Ci
So, 19.08. 20:00 9000 m 1/8 0/8 - - Ci
So, 19.08. 14:00 9000 m 2/8 0/8 - - Ci
So, 19.08. 8:00 9000 m 3/8 0/8 - - Ci
So, 19.08. 2:00 9000 m 2/8 0/8 - - Ci
Sa, 18.08. 20:00 9000 m 3/8 0/8 - - Ci
Sa, 18.08. 14:00 - 0/8 0/8 - - -
Sa, 18.08. 8:00 7500 m 1/8 0/8 - - Ci
Ortszeit Bedeckungsgrad in Achtel und Wolkenuntergrenze
Mo, 20.08. 2:30 1(9000m)
Mo, 20.08. 2:20 -
Mo, 20.08. 2:10 -
Mo, 20.08. 2:00 1(9000m)
Mo, 20.08. 1:50 -
Mo, 20.08. 1:40 -
Mo, 20.08. 1:30 1(9000m)
Mo, 20.08. 1:00 1(9000m)
Mo, 20.08. 0:30 1(9000m)
Mo, 20.08. 0:00 1(9000m)
So, 19.08. 23:30 -
Ortszeit Luftdruck NN (hPa) Tendenz (hPa in 3 Std.)
Mo, 20.08. 2:00 1021 + 0,2
So, 19.08. 20:00 1019 - 0,7
So, 19.08. 14:00 1021 - 1,2
So, 19.08. 8:00 1023 0,0
So, 19.08. 2:00 1023 - 0,2
Sa, 18.08. 20:00 1021 - 0,2
Sa, 18.08. 14:00 1022 - 0,4
Sa, 18.08. 8:00 1023 + 0,8
Ortszeit Luftdruck NN (hPa) Tendenz (hPa in 3 Std.)
Mo, 20.08. 2:30 1020 - 0,1
Mo, 20.08. 2:20 1020 keine Meldung
Mo, 20.08. 2:10 1021 keine Meldung
Mo, 20.08. 2:00 1021 + 0,2
Mo, 20.08. 1:50 1021 keine Meldung
Mo, 20.08. 1:40 1021 keine Meldung
Mo, 20.08. 1:30 1021 + 0,2
Mo, 20.08. 1:00 1021 + 0,5
Mo, 20.08. 0:30 1020 + 0,5
Mo, 20.08. 0:00 1021 + 0,8
So, 19.08. 23:30 1020 + 0,8
Ortszeit Schneehöhe (cm)
Mo, 20.08. 2:00 0
So, 19.08. 20:00 0
So, 19.08. 14:00 0
So, 19.08. 8:00 0
So, 19.08. 2:00 0
Sa, 18.08. 20:00 0
Sa, 18.08. 14:00 0
Sa, 18.08. 8:00 0
Ortszeit Schneehöhe (cm)
Mo, 20.08. 2:30 -
Mo, 20.08. 2:20 -
Mo, 20.08. 2:10 -
Mo, 20.08. 2:00 0
Mo, 20.08. 1:50 -
Mo, 20.08. 1:40 -
Mo, 20.08. 1:30 -
Mo, 20.08. 1:00 -
Mo, 20.08. 0:30 -
Mo, 20.08. 0:00 -
So, 19.08. 23:30 -
Link zu dieser Seite / Seite empfehlen

Das Wetter in ...